createdAt,value
2019-04-01T00:04:22.536Z,10.24
2019-04-01T00:06:51.878Z,10.28
2019-04-01T00:09:21.233Z,10.16
2019-04-01T00:11:50.574Z,10.12
2019-04-01T00:14:19.905Z,10.15
2019-04-01T00:16:49.250Z,10.08
2019-04-01T00:19:18.588Z,10.08
2019-04-01T00:21:47.931Z,10.05
2019-04-01T00:24:17.262Z,10.01
2019-04-01T00:26:58.431Z,10.02
2019-04-01T00:29:28.023Z,9.91
2019-04-01T00:31:57.367Z,9.79
2019-04-01T00:34:45.789Z,9.81
2019-04-01T00:37:15.130Z,9.81
2019-04-01T00:39:44.460Z,9.88
2019-04-01T00:42:32.918Z,9.86
2019-04-01T00:45:02.314Z,9.83
2019-04-01T00:47:31.644Z,9.78
2019-04-01T00:50:01.060Z,9.75
2019-04-01T00:52:36.216Z,9.68
2019-04-01T00:55:11.899Z,9.65
2019-04-01T00:57:41.237Z,9.59
2019-04-01T01:00:10.712Z,9.57
2019-04-01T01:02:40.044Z,9.57
2019-04-01T01:05:09.374Z,9.61
2019-04-01T01:07:38.704Z,9.56
2019-04-01T01:10:47.954Z,9.52
2019-04-01T01:13:17.351Z,9.51
2019-04-01T01:15:46.694Z,9.44
2019-04-01T01:18:16.023Z,9.44
2019-04-01T01:20:45.539Z,9.38
2019-04-01T01:23:14.872Z,9.40
2019-04-01T01:26:03.305Z,9.29
2019-04-01T01:28:32.740Z,9.33
2019-04-01T01:31:02.058Z,9.34
2019-04-01T01:33:31.391Z,9.34
2019-04-01T01:36:00.723Z,9.34
2019-04-01T01:38:30.063Z,9.39
2019-04-01T01:40:59.395Z,9.34
2019-04-01T01:43:28.736Z,9.23
2019-04-01T01:45:58.066Z,9.22
2019-04-01T01:48:27.408Z,9.10
2019-04-01T01:50:56.738Z,9.10
2019-04-01T01:53:26.076Z,9.02
2019-04-01T01:55:55.406Z,9.05
2019-04-01T01:58:44.252Z,8.91
2019-04-01T02:01:13.589Z,8.82
2019-04-01T02:03:42.931Z,8.68
2019-04-01T02:06:12.260Z,8.65
2019-04-01T02:08:41.591Z,8.67
2019-04-01T02:11:10.935Z,8.59
2019-04-01T02:13:40.267Z,8.56
2019-04-01T02:16:09.607Z,8.62
2019-04-01T02:18:58.567Z,8.57
2019-04-01T02:21:27.909Z,8.53
2019-04-01T02:23:57.244Z,8.48
2019-04-01T02:26:26.582Z,8.41
2019-04-01T02:28:55.935Z,8.45
2019-04-01T02:31:26.911Z,8.42
2019-04-01T02:34:02.035Z,8.44
2019-04-01T02:36:31.372Z,8.37
2019-04-01T02:39:00.713Z,8.28
2019-04-01T02:41:30.049Z,8.27
2019-04-01T02:43:59.409Z,8.26
2019-04-01T02:46:28.730Z,8.20
2019-04-01T02:48:58.313Z,8.23
2019-04-01T02:51:27.656Z,8.16
2019-04-01T02:54:02.343Z,8.15
2019-04-01T02:56:31.695Z,8.15
2019-04-01T02:59:01.014Z,8.11
2019-04-01T03:01:30.358Z,8.10
2019-04-01T03:04:12.362Z,8.09
2019-04-01T03:06:42.005Z,8.05
2019-04-01T03:09:11.398Z,8.04
2019-04-01T03:11:40.745Z,7.95
2019-04-01T03:14:10.093Z,7.96
2019-04-01T03:16:39.429Z,7.89
2019-04-01T03:22:29.120Z,7.82
2019-04-01T03:24:58.474Z,7.78
2019-04-01T03:27:27.807Z,7.82
2019-04-01T03:29:57.140Z,7.85
2019-04-01T03:32:26.921Z,7.83
2019-04-01T03:34:56.234Z,7.82
2019-04-01T03:37:25.577Z,7.72
2019-04-01T03:39:54.915Z,7.66
2019-04-01T03:42:24.260Z,7.74
2019-04-01T03:44:55.232Z,7.66
2019-04-01T03:47:34.178Z,7.60
2019-04-01T03:50:03.916Z,7.53
2019-04-01T03:52:33.251Z,7.56
2019-04-01T03:55:21.933Z,7.52
2019-04-01T03:57:51.264Z,7.49
2019-04-01T04:00:20.606Z,7.44
2019-04-01T04:02:49.945Z,7.44
2019-04-01T04:05:19.284Z,7.42
2019-04-01T04:07:48.618Z,7.33
2019-04-01T04:10:17.968Z,7.33
2019-04-01T04:12:47.679Z,7.34
2019-04-01T04:15:17.332Z,7.31
2019-04-01T04:17:46.665Z,7.35
2019-04-01T04:20:28.629Z,7.28
2019-04-01T04:22:57.964Z,7.26
2019-04-01T04:25:27.393Z,7.19
2019-04-01T04:28:15.818Z,7.21
2019-04-01T04:30:45.161Z,7.18
2019-04-01T04:33:14.512Z,7.18
2019-04-01T04:35:43.861Z,7.07
2019-04-01T04:38:13.200Z,7.19
2019-04-01T04:40:42.542Z,7.13
2019-04-01T04:43:11.882Z,7.16
2019-04-01T04:46:00.343Z,7.21
2019-04-01T04:48:29.657Z,7.24
2019-04-01T04:51:00.866Z,7.17
2019-04-01T04:53:30.210Z,7.05
2019-04-01T04:56:04.731Z,7.09
2019-04-01T04:58:34.078Z,7.12
2019-04-01T05:01:03.427Z,7.03
2019-04-01T05:03:32.764Z,6.98
2019-04-01T05:06:02.108Z,6.99
2019-04-01T05:08:31.460Z,6.94
2019-04-01T05:11:00.792Z,6.96
2019-04-01T05:13:30.197Z,7.00
2019-04-01T05:15:59.557Z,6.96
2019-04-01T05:18:28.907Z,6.94
2019-04-01T05:21:38.155Z,7.00
2019-04-01T05:24:07.643Z,6.94
2019-04-01T05:36:02.093Z,6.99
2019-04-01T05:39:11.331Z,6.94
2019-04-01T05:42:00.107Z,7.12
2019-04-01T05:44:29.450Z,7.17
2019-04-01T05:50:13.908Z,7.22
2019-04-01T05:52:43.418Z,7.17
2019-04-01T05:55:12.826Z,7.30
2019-04-01T05:57:42.341Z,7.32
2019-04-01T06:00:51.829Z,7.44
2019-04-01T06:03:21.186Z,7.40
2019-04-01T06:05:50.512Z,7.45
2019-04-01T06:08:19.857Z,7.55
2019-04-01T06:10:49.194Z,7.40
2019-04-01T06:13:18.686Z,7.50
2019-04-01T06:15:48.022Z,7.54
2019-04-01T06:18:17.365Z,7.62
2019-04-01T06:21:26.606Z,7.66
2019-04-01T06:23:55.960Z,7.79
2019-04-01T06:26:25.298Z,7.89
2019-04-01T06:28:54.640Z,8.01
2019-04-01T06:31:24.046Z,7.85
2019-04-01T06:33:53.533Z,8.05
2019-04-01T06:36:42.031Z,8.03
2019-04-01T06:39:11.377Z,8.10
2019-04-01T06:41:40.720Z,8.06
2019-04-01T06:44:10.057Z,8.25
2019-04-01T06:46:39.740Z,8.38
2019-04-01T06:49:09.076Z,8.42
2019-04-01T06:51:38.428Z,8.27
2019-04-01T06:54:07.798Z,8.20
2019-04-01T06:56:37.101Z,8.49
2019-04-01T06:59:06.534Z,8.68
2019-04-01T07:01:35.945Z,8.59
2019-04-01T07:04:05.354Z,8.60
2019-04-01T07:06:34.836Z,8.76
2019-04-01T07:12:37.779Z,9.29
2019-04-01T07:18:09.020Z,9.04
2019-04-01T07:20:38.434Z,9.25
2019-04-01T07:23:07.904Z,9.04
2019-04-01T07:25:37.242Z,8.84
2019-04-01T07:28:06.583Z,9.16
2019-04-01T07:33:36.501Z,9.19
2019-04-01T07:36:05.896Z,9.07
2019-04-01T07:38:35.307Z,9.36
2019-04-01T07:41:04.771Z,9.41
2019-04-01T07:43:34.116Z,9.28
2019-04-01T07:46:22.794Z,9.16
2019-04-01T07:48:52.209Z,9.34
2019-04-01T07:57:44.298Z,9.64
2019-04-01T08:00:19.945Z,9.71
2019-04-01T08:02:49.353Z,9.17
2019-04-01T08:05:18.690Z,9.48
2019-04-01T08:07:48.164Z,9.67
2019-04-01T08:10:17.871Z,9.91
2019-04-01T08:12:47.205Z,10.03
2019-04-01T08:15:16.884Z,9.88
2019-04-01T08:17:46.231Z,10.19
2019-04-01T08:20:15.899Z,10.42
2019-04-01T08:22:45.241Z,10.43
2019-04-01T08:25:14.585Z,10.31
2019-04-01T08:27:43.933Z,10.49
2019-04-01T08:33:50.132Z,10.41
2019-04-01T08:36:23.590Z,10.40
2019-04-01T08:38:55.401Z,10.37
2019-04-01T08:44:52.269Z,10.35
2019-04-01T08:47:33.782Z,10.76
2019-04-01T08:50:43.035Z,10.82
2019-04-01T08:53:12.368Z,10.90
2019-04-01T08:55:41.714Z,11.08
2019-04-01T08:58:11.053Z,11.13
2019-04-01T09:00:40.580Z,11.19
2019-04-01T09:03:09.919Z,11.40
2019-04-01T09:05:39.802Z,11.24
2019-04-01T09:08:09.141Z,11.69
2019-04-01T09:10:38.759Z,11.45
2019-04-01T09:13:08.444Z,11.88
2019-04-01T09:15:38.059Z,11.89
2019-04-01T09:18:09.170Z,12.05
2019-04-01T09:20:38.521Z,11.95
2019-04-01T09:23:07.856Z,11.90
2019-04-01T09:25:37.206Z,12.24
2019-04-01T09:28:06.541Z,12.47
2019-04-01T09:30:35.947Z,12.56
2019-04-01T09:33:05.291Z,12.64
2019-04-01T09:35:34.626Z,12.62
2019-04-01T09:38:03.976Z,12.62
2019-04-01T09:40:33.317Z,12.77
2019-04-01T09:43:02.662Z,12.91
2019-04-01T09:45:31.996Z,13.38
2019-04-01T09:48:01.348Z,12.89
2019-04-01T09:50:30.685Z,13.17
2019-04-01T09:53:00.035Z,13.30
2019-04-01T09:55:29.376Z,13.41
2019-04-01T09:57:58.721Z,13.41
2019-04-01T10:00:28.064Z,12.94
2019-04-01T10:02:57.420Z,13.23
2019-04-01T10:05:26.756Z,13.72
2019-04-01T10:07:56.094Z,13.77
2019-04-01T10:10:25.445Z,13.77
2019-04-01T10:12:54.790Z,13.64
2019-04-01T10:15:24.504Z,13.66
2019-04-01T10:17:53.850Z,14.08
2019-04-01T10:20:23.196Z,14.08
2019-04-01T10:22:52.535Z,13.97
2019-04-01T10:25:21.886Z,14.13
2019-04-01T10:27:51.226Z,14.35
2019-04-01T10:30:21.010Z,14.23
2019-04-01T10:32:50.344Z,14.23
2019-04-01T10:35:20.071Z,14.27
2019-04-01T10:37:49.411Z,14.94
2019-04-01T10:40:18.826Z,14.25
2019-04-01T10:42:48.244Z,14.66
2019-04-01T10:45:17.921Z,14.66
2019-04-01T10:47:47.308Z,14.65
2019-04-01T10:50:16.770Z,14.75
2019-04-01T10:52:46.165Z,14.98
2019-04-01T10:55:16.027Z,15.28
2019-04-01T10:57:45.377Z,15.19
2019-04-01T11:00:15.176Z,15.19
2019-04-01T11:02:44.611Z,15.10
2019-04-01T11:05:14.008Z,15.10
2019-04-01T11:07:43.314Z,15.67
2019-04-01T11:10:12.992Z,15.67
2019-04-01T11:12:42.549Z,15.66
2019-04-01T11:15:15.341Z,15.62
2019-04-01T11:17:44.046Z,15.68
2019-04-01T11:20:13.825Z,15.87
2019-04-01T11:22:43.115Z,15.95
2019-04-01T11:25:12.687Z,16.11
2019-04-01T11:27:42.035Z,16.06
2019-04-01T11:30:13.953Z,16.01
2019-04-01T11:32:43.173Z,15.76
2019-04-01T11:35:12.615Z,15.88
2019-04-01T11:37:42.156Z,15.89
2019-04-01T11:40:12.821Z,15.92
2019-04-01T11:42:42.292Z,15.76
2019-04-01T11:45:11.904Z,15.99
2019-04-01T11:47:41.442Z,16.33
2019-04-01T11:50:11.365Z,16.19
2019-04-01T11:52:40.689Z,15.80
2019-04-01T11:55:10.240Z,15.89
2019-04-01T11:57:40.523Z,16.30
2019-04-01T12:00:13.556Z,16.15
2019-04-01T12:02:43.169Z,16.22
2019-04-01T12:05:12.579Z,16.20
2019-04-01T12:07:42.123Z,16.27
2019-04-01T12:10:12.913Z,16.58
2019-04-01T12:12:42.237Z,16.46
2019-04-01T12:15:12.696Z,17.13
2019-04-01T12:17:42.420Z,16.80
2019-04-01T12:20:11.877Z,16.82
2019-04-01T12:22:45.236Z,16.72
2019-04-01T12:25:12.391Z,17.21
2019-04-01T12:27:41.724Z,16.95
2019-04-01T12:30:12.833Z,16.74
2019-04-01T12:32:42.166Z,17.08
2019-04-01T12:35:11.564Z,17.07
2019-04-01T12:37:40.908Z,17.19
2019-04-01T12:40:10.386Z,17.25
2019-04-01T12:42:40.099Z,16.98
2019-04-01T12:45:10.996Z,17.50
2019-04-01T12:47:43.220Z,17.64
2019-04-01T12:50:12.207Z,17.67
2019-04-01T12:52:41.573Z,17.48
2019-04-01T12:55:11.034Z,17.29
2019-04-01T12:57:40.374Z,17.42
2019-04-01T13:00:11.754Z,17.51
2019-04-01T13:02:41.095Z,17.67
2019-04-01T13:05:11.166Z,18.00
2019-04-01T13:07:40.492Z,17.66
2019-04-01T13:10:10.175Z,17.80
2019-04-01T13:12:39.504Z,17.58
2019-04-01T13:15:09.586Z,18.04
2019-04-01T13:17:38.911Z,18.16
2019-04-01T13:20:08.606Z,18.22
2019-04-01T13:22:39.920Z,18.03
2019-04-01T13:25:09.403Z,18.07
2019-04-01T13:27:38.738Z,18.07
2019-04-01T13:30:08.699Z,18.23
2019-04-01T13:32:38.031Z,18.66
2019-04-01T13:35:07.740Z,18.97
2019-04-01T13:37:37.401Z,19.02
2019-04-01T13:40:07.769Z,19.24
2019-04-01T13:42:37.140Z,19.26
2019-04-01T13:45:06.821Z,19.30
2019-04-01T13:47:36.147Z,19.03
2019-04-01T13:50:06.542Z,18.71
2019-04-01T13:52:35.859Z,18.05
2019-04-01T13:55:06.243Z,17.74
2019-04-01T13:57:35.572Z,18.11
2019-04-01T14:00:06.656Z,18.28
2019-04-01T14:02:36.062Z,18.29
2019-04-01T14:05:06.641Z,18.32
2019-04-01T14:07:35.973Z,17.95
2019-04-01T14:10:08.779Z,17.91
2019-04-01T14:12:38.200Z,17.70
2019-04-01T14:15:08.373Z,17.94
2019-04-01T14:17:37.714Z,18.00
2019-04-01T14:20:07.486Z,18.29
2019-04-01T14:22:36.831Z,18.52
2019-04-01T14:25:07.857Z,18.77
2019-04-01T14:27:37.379Z,18.59
2019-04-01T14:30:07.569Z,18.86
2019-04-01T14:32:36.912Z,18.90
2019-04-01T14:35:07.289Z,18.67
2019-04-01T14:37:36.633Z,18.38
2019-04-01T14:40:08.639Z,18.51
2019-04-01T14:42:39.662Z,18.32
2019-04-01T14:45:10.229Z,17.95
2019-04-01T14:47:56.072Z,17.85
2019-04-01T14:50:10.764Z,17.99
2019-04-01T14:52:41.307Z,17.92
2019-04-01T14:55:10.976Z,18.18
2019-04-01T14:57:40.325Z,18.29
2019-04-01T15:03:12.037Z,18.14
2019-04-01T15:05:41.377Z,18.29
2019-04-01T15:08:10.703Z,18.09
2019-04-01T15:10:41.224Z,18.36
2019-04-01T15:13:16.607Z,18.29
2019-04-01T15:15:45.962Z,18.14
2019-04-01T15:18:16.393Z,18.15
2019-04-01T15:20:55.948Z,17.91
2019-04-01T15:23:31.136Z,17.89
2019-04-01T15:26:00.477Z,17.72
2019-04-01T15:28:30.572Z,17.80
2019-04-01T15:31:10.355Z,17.93
2019-04-01T15:33:39.687Z,18.26
2019-04-01T15:36:09.034Z,18.13
2019-04-01T15:38:38.557Z,18.10
2019-04-01T15:41:07.895Z,18.33
2019-04-01T15:43:37.278Z,18.75
2019-04-01T15:46:06.870Z,18.82
2019-04-01T15:51:49.377Z,18.43
2019-04-01T15:54:18.713Z,18.11
2019-04-01T15:56:48.060Z,18.28
2019-04-01T15:59:17.391Z,18.48
2019-04-01T16:01:46.724Z,17.99
2019-04-01T16:04:16.605Z,18.02
2019-04-01T16:06:52.575Z,17.83
2019-04-01T16:09:41.432Z,18.05
2019-04-01T16:12:10.752Z,18.05
2019-04-01T16:20:50.481Z,17.90
2019-04-01T16:23:20.048Z,18.03
2019-04-01T16:25:49.387Z,18.11
2019-04-01T16:28:18.721Z,18.08
2019-04-01T16:30:48.063Z,18.08
2019-04-01T16:33:36.787Z,17.82
2019-04-01T16:36:18.225Z,17.88
2019-04-01T16:38:47.545Z,17.92
2019-04-01T16:41:17.031Z,17.87
2019-04-01T16:43:46.692Z,17.58
2019-04-01T16:46:22.908Z,17.74
2019-04-01T16:48:52.320Z,17.41
2019-04-01T16:51:21.652Z,17.36
2019-04-01T16:54:10.334Z,17.23
2019-04-01T16:56:39.917Z,17.16
2019-04-01T16:59:09.247Z,16.93
2019-04-01T17:01:41.371Z,16.87
2019-04-01T17:04:28.704Z,16.76
2019-04-01T17:06:59.678Z,16.75
2019-04-01T17:09:48.419Z,16.66
2019-04-01T17:12:17.833Z,16.66
2019-04-01T17:14:47.164Z,16.63
2019-04-01T17:17:16.509Z,16.55
2019-04-01T17:19:50.998Z,16.48
2019-04-01T17:22:20.340Z,16.40
2019-04-01T17:24:51.304Z,16.34
2019-04-01T17:27:22.290Z,16.19
2019-04-01T17:29:51.619Z,16.15
2019-04-01T17:32:22.616Z,16.00
2019-04-01T17:38:13.720Z,15.82
2019-04-01T17:40:48.165Z,15.80
2019-04-01T17:43:19.146Z,15.83
2019-04-01T17:45:50.108Z,15.82
2019-04-01T17:48:21.091Z,15.75
2019-04-01T17:50:50.675Z,15.84
2019-04-01T17:53:22.295Z,15.78
2019-04-01T17:56:11.939Z,15.85
2019-04-01T17:58:41.570Z,15.69
2019-04-01T18:01:12.921Z,15.66
2019-04-01T18:03:44.162Z,15.58
2019-04-01T18:06:13.491Z,15.57
2019-04-01T18:08:44.474Z,15.59
2019-04-01T18:11:16.203Z,15.44
2019-04-01T18:13:52.242Z,15.20
2019-04-01T18:16:21.851Z,15.23
2019-04-01T18:18:52.930Z,15.30
2019-04-01T18:21:22.832Z,15.24
2019-04-01T18:24:11.517Z,15.09
2019-04-01T18:26:40.894Z,14.92
2019-04-01T18:29:10.337Z,14.86
2019-04-01T18:31:40.313Z,14.81
2019-04-01T18:34:10.022Z,14.69
2019-04-01T18:36:39.419Z,14.68
2019-04-01T18:39:29.951Z,14.46
2019-04-01T18:42:31.305Z,14.23
2019-04-01T18:45:00.953Z,14.23
2019-04-01T18:47:30.299Z,14.29
2019-04-01T18:50:11.828Z,13.98
2019-04-01T18:52:53.112Z,14.02
2019-04-01T18:55:34.654Z,14.04
2019-04-01T18:58:04.152Z,14.04
2019-04-01T19:00:52.849Z,13.95
2019-04-01T19:03:34.083Z,14.02
2019-04-01T19:06:15.866Z,13.96
2019-04-01T19:08:45.372Z,13.96
2019-04-01T19:11:33.853Z,13.83
2019-04-01T19:14:03.519Z,13.83
2019-04-01T19:16:52.314Z,13.76
2019-04-01T19:19:21.750Z,13.76
2019-04-01T19:22:15.995Z,13.47
2019-04-01T19:24:57.881Z,13.34
2019-04-01T19:27:39.586Z,13.23
2019-04-01T19:30:48.954Z,13.26
2019-04-01T19:33:18.560Z,13.26
2019-04-01T19:36:01.374Z,13.28
2019-04-01T19:38:30.974Z,13.28
2019-04-01T19:41:00.420Z,13.18
2019-04-01T19:43:29.846Z,13.16
2019-04-01T19:45:59.556Z,13.12
2019-04-01T19:48:28.954Z,13.08
2019-04-01T19:50:59.350Z,13.08
2019-04-01T19:53:48.480Z,13.20
2019-04-01T19:56:37.227Z,13.06
2019-04-01T19:59:06.588Z,13.10
2019-04-01T20:01:55.424Z,13.05
2019-04-01T20:04:36.565Z,13.00
2019-04-01T20:07:06.033Z,13.00
2019-04-01T20:09:35.459Z,12.90
2019-04-01T20:12:04.913Z,12.81
2019-04-01T20:14:34.260Z,12.97
2019-04-01T20:17:03.978Z,12.95
2019-04-01T20:19:34.101Z,12.93
2019-04-01T20:22:29.096Z,12.81
2019-04-01T20:25:44.070Z,12.81
2019-04-01T20:28:13.635Z,12.81
2019-04-01T20:31:03.626Z,12.71
2019-04-01T20:33:32.959Z,12.71
2019-04-01T20:36:02.367Z,12.73
2019-04-01T20:38:31.707Z,12.71
2019-04-01T20:41:12.956Z,12.85
2019-04-01T20:43:54.352Z,12.83
2019-04-01T20:49:21.584Z,12.74
2019-04-01T20:51:50.915Z,12.46
2019-04-01T20:54:20.258Z,12.55
2019-04-01T20:56:49.587Z,12.44
2019-04-01T20:59:18.931Z,12.35
2019-04-01T21:01:48.331Z,12.35
2019-04-01T21:04:17.663Z,12.38
2019-04-01T21:06:47.003Z,12.38
2019-04-01T21:09:28.930Z,12.30
2019-04-01T21:11:58.310Z,12.30
2019-04-01T21:14:27.645Z,12.27
2019-04-01T21:16:57.265Z,12.29
2019-04-01T21:19:45.938Z,12.13
2019-04-01T21:22:15.275Z,12.13
2019-04-01T21:24:44.609Z,12.07
2019-04-01T21:27:13.970Z,12.04
2019-04-01T21:29:43.301Z,12.03
2019-04-01T21:32:12.641Z,12.03
2019-04-01T21:34:41.999Z,11.97
2019-04-01T21:37:30.920Z,11.87
2019-04-01T21:40:00.806Z,11.87
2019-04-01T21:42:30.195Z,11.78
2019-04-01T21:44:59.526Z,11.67
2019-04-01T21:47:28.870Z,11.74
2019-04-01T21:49:58.216Z,11.69
2019-04-01T21:52:27.542Z,11.78
2019-04-01T21:54:57.078Z,11.66
2019-04-01T21:57:47.008Z,11.53
2019-04-01T22:03:31.171Z,11.51
2019-04-01T22:06:00.503Z,11.40
2019-04-01T22:08:29.909Z,11.40
2019-04-01T22:11:39.158Z,11.24
2019-04-01T22:14:08.513Z,11.18
2019-04-01T22:16:37.852Z,11.17
2019-04-01T22:19:07.203Z,11.14
2019-04-01T22:21:36.542Z,11.06
2019-04-01T22:24:05.944Z,11.00
2019-04-01T22:26:35.283Z,11.03
2019-04-01T22:29:09.847Z,11.12
2019-04-01T22:31:39.186Z,11.17
2019-04-01T22:34:09.180Z,11.06
2019-04-01T22:36:45.216Z,10.95
2019-04-01T22:39:26.295Z,11.01
2019-04-01T22:42:04.692Z,11.03
2019-04-01T22:44:53.339Z,10.98
2019-04-01T22:47:24.344Z,11.00
2019-04-01T22:49:59.187Z,10.90
2019-04-01T22:52:28.531Z,10.88
2019-04-01T22:54:58.268Z,10.82
2019-04-01T22:57:34.022Z,10.83
2019-04-01T23:03:17.723Z,10.74
2019-04-01T23:05:47.065Z,10.75
2019-04-01T23:08:16.413Z,10.63
2019-04-01T23:10:45.743Z,10.53
2019-04-01T23:13:15.088Z,10.59
2019-04-01T23:15:44.478Z,10.61
2019-04-01T23:18:13.758Z,10.52
2019-04-01T23:20:43.100Z,10.62
2019-04-01T23:23:12.432Z,10.50
2019-04-01T23:25:41.778Z,10.43
2019-04-01T23:28:11.373Z,10.40
2019-04-01T23:30:40.709Z,10.30
2019-04-01T23:33:10.041Z,10.33
2019-04-01T23:35:39.393Z,10.24
2019-04-01T23:38:08.725Z,10.24
2019-04-01T23:40:38.064Z,10.19
2019-04-01T23:43:07.396Z,10.19
2019-04-01T23:45:36.739Z,10.13
2019-04-01T23:48:06.070Z,10.05
2019-04-01T23:50:42.555Z,10.01
2019-04-01T23:53:11.883Z,9.98
2019-04-01T23:55:41.225Z,10.01
2019-04-01T23:58:29.898Z,9.94
